createdAt,value
2018-06-14T00:00:15.690Z,12.30
2018-06-14T00:05:10.404Z,12.40
2018-06-14T00:10:05.309Z,12.40
2018-06-14T00:15:00.961Z,12.40
2018-06-14T00:19:55.687Z,12.50
2018-06-14T00:24:50.787Z,12.40
2018-06-14T00:29:47.259Z,12.40
2018-06-14T00:34:42.062Z,12.40
2018-06-14T00:39:37.025Z,12.40
2018-06-14T00:44:32.947Z,12.40
2018-06-14T00:49:31.384Z,12.40
2018-06-14T00:54:26.559Z,12.40
2018-06-14T00:59:21.222Z,12.40
2018-06-14T01:04:17.934Z,12.40
2018-06-14T01:09:12.607Z,12.40
2018-06-14T01:14:07.834Z,12.40
2018-06-14T01:19:02.436Z,12.40
2018-06-14T01:23:57.084Z,12.30
2018-06-14T01:28:51.792Z,12.40
2018-06-14T01:33:46.427Z,12.30
2018-06-14T01:38:41.134Z,12.40
2018-06-14T01:43:35.719Z,12.40
2018-06-14T01:48:30.449Z,12.40
2018-06-14T01:53:25.078Z,12.30
2018-06-14T01:58:19.749Z,12.20
2018-06-14T02:03:14.541Z,12.20
2018-06-14T02:08:09.182Z,12.10
2018-06-14T02:13:03.790Z,12.10
2018-06-14T02:17:59.346Z,12.10
2018-06-14T02:22:54.635Z,12.10
2018-06-14T02:27:49.294Z,12.00
2018-06-14T02:32:44.192Z,12.10
2018-06-14T02:37:41.329Z,12.00
2018-06-14T02:42:36.059Z,12.00
2018-06-14T02:47:30.814Z,12.00
2018-06-14T02:52:25.510Z,11.90
2018-06-14T02:57:20.235Z,11.80
2018-06-14T03:02:14.887Z,11.70
2018-06-14T03:07:10.300Z,11.70
2018-06-14T03:12:06.061Z,11.70
2018-06-14T03:17:00.757Z,11.60
2018-06-14T03:21:55.448Z,11.60
2018-06-14T03:26:50.209Z,11.60
2018-06-14T03:31:45.806Z,11.60
2018-06-14T03:36:40.712Z,11.70
2018-06-14T03:41:35.382Z,11.60
2018-06-14T03:46:31.794Z,11.50
2018-06-14T03:51:26.494Z,11.50
2018-06-14T03:56:21.200Z,11.50
2018-06-14T04:01:16.028Z,11.50
2018-06-14T04:06:10.734Z,11.50
2018-06-14T04:11:08.667Z,11.50
2018-06-14T04:16:03.306Z,11.60
2018-06-14T04:20:57.919Z,11.60
2018-06-14T04:31:17.349Z,11.70
2018-06-14T04:36:11.954Z,11.90
2018-06-14T04:41:07.242Z,12.10
2018-06-14T04:46:02.103Z,12.30
2018-06-14T04:50:56.726Z,12.60
2018-06-14T04:55:51.380Z,12.90
2018-06-14T05:00:46.055Z,13.20
2018-06-14T05:05:40.830Z,13.60
2018-06-14T05:10:35.572Z,13.80
2018-06-14T05:15:30.404Z,14.10
2018-06-14T05:20:25.096Z,14.20
2018-06-14T05:25:20.875Z,14.60
2018-06-14T05:30:15.625Z,14.90
2018-06-14T05:35:10.375Z,15.10
2018-06-14T05:40:05.182Z,15.30
2018-06-14T05:44:59.786Z,15.20
2018-06-14T05:49:55.482Z,14.90
2018-06-14T05:54:50.270Z,14.90
2018-06-14T05:59:45.092Z,15.00
2018-06-14T06:04:39.736Z,15.10
2018-06-14T06:14:28.663Z,14.80
2018-06-14T06:19:23.323Z,14.80
2018-06-14T06:24:17.969Z,14.60
2018-06-14T06:29:12.614Z,14.50
2018-06-14T06:34:07.278Z,14.50
2018-06-14T06:39:07.045Z,14.60
2018-06-14T06:44:01.805Z,14.70
2018-06-14T06:48:56.803Z,14.60
2018-06-14T06:53:51.499Z,14.90
2018-06-14T06:58:46.117Z,15.20
2018-06-14T07:03:40.991Z,15.50
2018-06-14T07:08:35.655Z,15.60
2018-06-14T07:13:31.720Z,15.80
2018-06-14T07:18:31.858Z,15.90
2018-06-14T07:34:17.255Z,16.20
2018-06-14T07:39:15.178Z,16.40
2018-06-14T07:49:53.450Z,17.30
2018-06-14T07:54:48.297Z,17.70
2018-06-14T07:59:43.342Z,18.30
2018-06-14T08:04:48.605Z,18.30
2018-06-14T08:14:48.049Z,18.50
2018-06-14T08:19:45.405Z,18.70
2018-06-14T08:25:38.069Z,19.60
2018-06-14T08:30:34.109Z,19.60
2018-06-14T08:35:30.648Z,19.80
2018-06-14T08:40:32.845Z,20.10
2018-06-14T08:45:27.738Z,20.10
2018-06-14T08:50:22.460Z,20.20
2018-06-14T08:55:17.359Z,20.40
2018-06-14T09:00:12.130Z,20.30
2018-06-14T09:05:06.903Z,20.80
2018-06-14T09:10:01.725Z,20.60
2018-06-14T09:14:57.310Z,19.70
2018-06-14T09:19:52.250Z,18.80
2018-06-14T09:24:46.998Z,18.30
2018-06-14T09:29:41.867Z,18.30
2018-06-14T09:34:45.458Z,19.40
2018-06-14T09:39:40.274Z,20.40
2018-06-14T09:44:35.141Z,21.20
2018-06-14T09:49:31.590Z,21.60
2018-06-14T09:54:27.054Z,21.70
2018-06-14T09:59:21.894Z,20.80
2018-06-14T10:04:39.394Z,20.80
2018-06-14T10:09:34.283Z,20.30
2018-06-14T10:14:30.079Z,19.60
2018-06-14T10:19:24.996Z,19.50
2018-06-14T10:24:19.775Z,19.00
2018-06-14T10:29:14.650Z,18.80
2018-06-14T10:34:09.609Z,18.70
2018-06-14T10:39:06.164Z,19.30
2018-06-14T10:44:01.311Z,19.70
2018-06-14T10:53:52.205Z,19.30
2018-06-14T10:58:47.279Z,19.30
2018-06-14T11:03:42.446Z,20.00
2018-06-14T11:08:37.656Z,20.40
2018-06-14T11:13:32.661Z,21.60
2018-06-14T11:18:27.864Z,21.80
2018-06-14T11:23:23.227Z,21.50
2018-06-14T11:28:19.097Z,20.90
2018-06-14T11:33:14.225Z,20.40
2018-06-14T11:38:09.581Z,20.40
2018-06-14T11:43:04.780Z,21.50
2018-06-14T11:47:59.996Z,21.10
2018-06-14T11:58:11.426Z,20.00
2018-06-14T12:08:04.265Z,20.00
2018-06-14T12:13:00.123Z,21.10
2018-06-14T12:17:58.193Z,22.10
2018-06-14T12:22:53.688Z,22.30
2018-06-14T12:27:50.991Z,21.80
2018-06-14T12:33:07.865Z,21.00
2018-06-14T12:38:03.605Z,20.80
2018-06-14T12:48:23.856Z,21.20
2018-06-14T12:53:26.610Z,21.30
2018-06-14T12:58:36.162Z,21.40
2018-06-14T13:03:31.259Z,21.60
2018-06-14T13:08:26.258Z,21.50
2018-06-14T13:13:22.072Z,21.40
2018-06-14T13:18:17.137Z,21.10
2018-06-14T13:23:11.849Z,21.20
2018-06-14T13:28:06.854Z,21.20
2018-06-14T13:33:03.986Z,21.10
2018-06-14T13:37:59.041Z,20.70
2018-06-14T13:42:54.805Z,20.50
2018-06-14T13:47:49.580Z,20.80
2018-06-14T13:52:45.164Z,21.10
2018-06-14T13:58:06.088Z,21.30
2018-06-14T14:03:18.046Z,21.00
2018-06-14T14:08:29.168Z,20.80
2018-06-14T14:13:24.233Z,20.90
2018-06-14T14:18:19.310Z,20.80
2018-06-14T14:23:14.662Z,21.00
2018-06-14T14:28:09.772Z,21.20
2018-06-14T14:33:04.661Z,21.20
2018-06-14T14:37:59.708Z,21.20
2018-06-14T14:42:54.982Z,21.10
2018-06-14T14:47:49.996Z,20.90
2018-06-14T14:52:45.045Z,20.70
2018-06-14T14:57:40.648Z,20.60
2018-06-14T15:02:35.685Z,20.50
2018-06-14T15:07:47.569Z,20.50
2018-06-14T15:12:42.916Z,20.60
2018-06-14T15:17:37.953Z,20.40
2018-06-14T15:22:33.138Z,20.30
2018-06-14T15:27:30.048Z,20.40
2018-06-14T15:32:25.005Z,20.40
2018-06-14T15:37:24.659Z,20.40
2018-06-14T15:42:30.539Z,20.40
2018-06-14T15:47:26.456Z,20.30
2018-06-14T15:52:21.403Z,20.30
2018-06-14T15:57:16.256Z,20.40
2018-06-14T16:02:12.274Z,20.30
2018-06-14T16:07:07.462Z,20.20
2018-06-14T16:16:56.862Z,20.30
2018-06-14T16:21:51.695Z,20.10
2018-06-14T16:26:46.627Z,20.00
2018-06-14T16:31:41.520Z,20.10
2018-06-14T16:36:36.310Z,20.00
2018-06-14T16:41:31.324Z,20.00
2018-06-14T16:46:26.292Z,19.90
2018-06-14T16:51:21.194Z,19.90
2018-06-14T16:56:16.028Z,19.90
2018-06-14T17:01:10.800Z,19.80
2018-06-14T17:06:05.683Z,19.80
2018-06-14T17:11:00.528Z,19.80
2018-06-14T17:15:55.404Z,19.80
2018-06-14T17:20:52.677Z,19.70
2018-06-14T17:25:49.955Z,19.60
2018-06-14T17:30:45.692Z,19.50
2018-06-14T17:35:42.248Z,19.40
2018-06-14T17:40:37.792Z,19.40
2018-06-14T17:45:32.734Z,19.30
2018-06-14T17:50:27.587Z,19.30
2018-06-14T17:55:23.772Z,19.20
2018-06-14T18:00:19.090Z,19.10
2018-06-14T18:05:14.052Z,19.00
2018-06-14T18:10:09.013Z,18.90
2018-06-14T18:15:04.105Z,18.80
2018-06-14T18:19:58.958Z,18.60
2018-06-14T18:24:57.504Z,18.30
2018-06-14T18:29:52.552Z,18.10
2018-06-14T18:34:47.757Z,17.90
2018-06-14T18:39:42.895Z,17.70
2018-06-14T18:48:10.758Z,17.50
2018-06-14T18:53:07.349Z,17.30
2018-06-14T18:58:02.349Z,17.00
2018-06-14T19:02:57.388Z,16.90
2018-06-14T19:07:52.597Z,16.90
2018-06-14T19:12:51.225Z,16.90
2018-06-14T19:20:19.333Z,16.80
2018-06-14T19:37:22.345Z,16.50
2018-06-14T19:42:26.906Z,16.20
2018-06-14T19:47:44.995Z,16.00
2018-06-14T19:57:31.502Z,16.00
2018-06-14T20:02:29.057Z,16.10
2018-06-14T20:17:54.528Z,15.50
2018-06-14T20:22:49.462Z,15.40
2018-06-14T20:27:44.248Z,15.30
2018-06-14T20:32:38.983Z,15.30
2018-06-14T20:37:35.314Z,15.30
2018-06-14T20:42:30.141Z,15.30
2018-06-14T20:47:24.808Z,15.20
2018-06-14T20:52:20.230Z,15.00
2018-06-14T20:57:15.628Z,15.00
2018-06-14T21:02:10.340Z,15.00
2018-06-14T21:07:05.212Z,15.00
2018-06-14T21:12:00.086Z,15.00
2018-06-14T21:16:54.835Z,14.90
2018-06-14T21:21:49.550Z,15.00
2018-06-14T21:26:44.443Z,14.90
2018-06-14T21:31:39.184Z,15.00
2018-06-14T21:36:34.915Z,14.80
2018-06-14T21:41:34.540Z,14.70
2018-06-14T21:46:29.655Z,14.80
2018-06-14T21:51:48.420Z,14.70
2018-06-14T21:56:45.160Z,14.70
2018-06-14T22:01:40.019Z,14.80
2018-06-14T22:06:34.701Z,14.80
2018-06-14T22:11:29.557Z,14.90
2018-06-14T22:16:24.577Z,14.90
2018-06-14T22:21:19.503Z,14.80
2018-06-14T22:26:14.310Z,14.70
2018-06-14T22:31:09.014Z,14.70
2018-06-14T22:36:07.997Z,14.60
2018-06-14T22:41:03.111Z,14.50
2018-06-14T22:45:57.834Z,14.40
2018-06-14T22:51:09.154Z,14.40
2018-06-14T23:01:38.115Z,14.40
2018-06-14T23:06:33.166Z,14.20
2018-06-14T23:11:28.007Z,14.10
2018-06-14T23:16:22.832Z,13.90
2018-06-14T23:21:17.704Z,13.90
2018-06-14T23:26:12.590Z,13.80
2018-06-14T23:31:08.309Z,13.70
2018-06-14T23:36:03.040Z,13.70
2018-06-14T23:40:57.781Z,13.80
2018-06-14T23:45:53.544Z,13.70
2018-06-14T23:50:48.324Z,13.70
2018-06-14T23:55:43.269Z,13.60
